Time;durP1;ratioP1;P1;durP2;ratioP2;P2;SDS_P1;SDS_P2;PMS_P1;PMS_P2;Temp;Humidity;BMP_temperature;BMP_pressure;BME280_temperature;BME280_humidity;BME280_pressure;Samples;Min_cycle;Max_cycle;Signal;HPM_P1;HPM_P2
2022/03/06 00:00:40;;;;;;;24.83;12.20;;;-1.30;51.50;;;;;;5073152;28;20187;-60
2022/03/06 00:03:06;;;;;;;26.20;11.70;;;-1.30;51.60;;;;;;5063056;28;20177;-58
2022/03/06 00:05:32;;;;;;;23.30;12.03;;;-1.30;52.20;;;;;;5064371;28;20430;-58
2022/03/06 00:07:59;;;;;;;24.70;12.30;;;-1.30;51.80;;;;;;5061463;28;20474;-59
2022/03/06 00:10:26;;;;;;;24.40;12.13;;;-1.30;51.80;;;;;;5063043;28;20271;-58
2022/03/06 00:12:52;;;;;;;25.93;12.17;;;-1.30;51.80;;;;;;5060543;28;20450;-59
2022/03/06 00:15:18;;;;;;;24.43;12.30;;;-1.30;51.70;;;;;;5071225;28;20470;-59
2022/03/06 00:17:44;;;;;;;25.40;12.47;;;-1.30;51.70;;;;;;5065153;28;20522;-58
2022/03/06 00:20:10;;;;;;;22.20;12.13;;;-1.30;51.70;;;;;;5067292;28;21016;-58
2022/03/06 00:22:37;;;;;;;29.43;12.67;;;-1.30;51.80;;;;;;5068083;28;20599;-59
2022/03/06 00:25:04;;;;;;;23.07;11.43;;;-1.30;51.80;;;;;;5063795;28;20537;-59
2022/03/06 00:27:30;;;;;;;21.90;11.67;;;-1.30;51.90;;;;;;5074334;28;20490;-59
2022/03/06 00:29:55;;;;;;;23.83;11.23;;;-1.40;51.80;;;;;;5074410;28;20593;-59
2022/03/06 00:32:22;;;;;;;25.50;11.60;;;-1.40;51.90;;;;;;5083143;28;20199;-59
2022/03/06 00:34:48;;;;;;;24.67;12.23;;;-1.40;51.90;;;;;;5079726;28;20260;-55
2022/03/06 00:37:14;;;;;;;24.10;10.67;;;-1.40;51.90;;;;;;5092153;28;20446;-61
2022/03/06 00:39:41;;;;;;;23.60;11.97;;;-1.40;51.90;;;;;;5086810;28;20732;-61
2022/03/06 00:42:08;;;;;;;19.67;10.50;;;-1.50;51.80;;;;;;5095649;28;20428;-60
2022/03/06 00:44:34;;;;;;;25.73;12.30;;;-1.50;51.80;;;;;;5099043;28;20503;-59
2022/03/06 00:47:00;;;;;;;25.53;12.17;;;-1.50;51.90;;;;;;5086250;28;20434;-58
2022/03/06 00:49:26;;;;;;;25.83;12.70;;;-1.50;52.00;;;;;;5088449;28;20837;-58
2022/03/06 00:51:51;;;;;;;22.07;11.70;;;-1.50;52.10;;;;;;5088093;28;20188;-59
2022/03/06 00:54:17;;;;;;;24.90;12.00;;;-1.60;52.10;;;;;;5086862;28;20457;-59
2022/03/06 00:56:43;;;;;;;38.70;11.83;;;-1.60;52.10;;;;;;5091568;28;20187;-58
2022/03/06 00:59:09;;;;;;;23.00;11.10;;;-1.60;52.20;;;;;;5070935;28;20438;-58
2022/03/06 01:01:34;;;;;;;24.83;11.50;;;-1.60;52.30;;;;;;5089707;28;20644;-58
2022/03/06 01:04:00;;;;;;;24.80;11.93;;;-1.60;52.30;;;;;;5071118;28;20184;-58
2022/03/06 01:06:26;;;;;;;24.43;11.47;;;-1.70;52.40;;;;;;5066985;28;20224;-59
2022/03/06 01:08:51;;;;;;;30.80;11.70;;;-1.70;52.60;;;;;;5088370;28;20193;-58
2022/03/06 01:11:17;;;;;;;23.10;11.20;;;-1.70;52.70;;;;;;5069331;28;20233;-57
2022/03/06 01:13:43;;;;;;;25.87;12.00;;;-1.70;52.80;;;;;;5064955;28;20620;-56
2022/03/06 01:16:09;;;;;;;25.87;12.20;;;-1.70;52.80;;;;;;5068667;28;20207;-58
2022/03/06 01:18:34;;;;;;;21.57;11.30;;;-1.80;52.70;;;;;;5059832;28;20216;-58
2022/03/06 01:21:00;;;;;;;24.70;11.67;;;-1.80;52.80;;;;;;5061529;28;20823;-59
2022/03/06 01:23:26;;;;;;;28.17;12.90;;;-1.80;52.90;;;;;;5058492;28;20645;-58
2022/03/06 01:25:52;;;;;;;23.10;10.87;;;-1.80;52.90;;;;;;5068019;28;20273;-60
2022/03/06 01:28:18;;;;;;;26.57;12.00;;;-1.80;53.00;;;;;;5072742;28;20774;-58
2022/03/06 01:30:43;;;;;;;23.60;12.20;;;-1.80;53.00;;;;;;5061259;28;20181;-58
2022/03/06 01:33:09;;;;;;;29.23;12.47;;;-1.80;53.00;;;;;;5056207;28;20184;-57
2022/03/06 01:35:35;;;;;;;21.87;12.10;;;-1.80;53.00;;;;;;5069885;28;20201;-58
2022/03/06 01:38:00;;;;;;;25.03;11.60;;;-1.80;53.00;;;;;;5058513;28;20290;-57
2022/03/06 01:40:26;;;;;;;22.93;12.03;;;-1.80;53.10;;;;;;5065032;28;20198;-58
2022/03/06 01:42:52;;;;;;;27.63;12.17;;;-1.80;53.10;;;;;;5069707;28;20191;-58
2022/03/06 01:45:20;;;;;;;27.50;12.13;;;-1.90;53.00;;;;;;5078189;28;20185;-58
2022/03/06 01:47:50;;;;;;;23.60;11.50;;;-1.90;53.00;;;;;;5076574;28;20179;-58
2022/03/06 01:50:23;;;;;;;20.40;9.93;;;-1.90;53.10;;;;;;5067929;28;20919;-58
2022/03/06 01:52:50;;;;;;;21.10;11.23;;;-1.90;53.10;;;;;;5069183;28;20509;-58
2022/03/06 01:55:17;;;;;;;24.83;11.90;;;-2.00;53.00;;;;;;5067020;28;20472;-57
2022/03/06 01:57:45;;;;;;;23.80;10.30;;;-2.00;53.00;;;;;;5068453;28;20433;-55
2022/03/06 02:00:18;;;;;;;21.83;11.57;;;-2.00;53.20;;;;;;5067744;28;20505;-57
2022/03/06 02:02:44;;;;;;;24.70;11.50;;;-2.10;53.10;;;;;;5069669;28;20491;-56
2022/03/06 02:05:10;;;;;;;27.37;12.73;;;-2.10;53.10;;;;;;5067492;28;20565;-57
2022/03/06 02:07:36;;;;;;;28.20;12.30;;;-2.10;53.20;;;;;;5067659;28;20538;-58
2022/03/06 02:10:04;;;;;;;26.13;11.10;;;-2.10;53.30;;;;;;5066153;28;20856;-56
2022/03/06 02:12:31;;;;;;;26.03;11.63;;;-2.20;53.30;;;;;;5058766;28;20309;-57
2022/03/06 02:14:58;;;;;;;25.07;12.23;;;-2.20;53.40;;;;;;5068164;28;20496;-57
2022/03/06 02:17:25;;;;;;;23.33;11.27;;;-2.30;53.90;;;;;;5056310;28;20425;-57
2022/03/06 02:19:55;;;;;;;22.87;10.67;;;-2.30;53.60;;;;;;5068701;28;20493;-58
2022/03/06 02:22:23;;;;;;;21.57;11.30;;;-2.30;53.70;;;;;;5068945;28;20426;-58
2022/03/06 02:24:49;;;;;;;23.33;10.90;;;-2.40;53.80;;;;;;5055836;28;20466;-58
2022/03/06 02:27:15;;;;;;;29.43;11.20;;;-2.30;54.10;;;;;;5073131;28;20957;-59
2022/03/06 02:29:42;;;;;;;27.00;12.30;;;-2.40;54.00;;;;;;5063701;28;20274;-57
2022/03/06 02:32:13;;;;;;;24.33;11.73;;;-2.30;54.30;;;;;;5067284;28;20191;-58
2022/03/06 02:34:40;;;;;;;33.93;12.00;;;-2.30;54.50;;;;;;5069661;28;21178;-57
2022/03/06 02:37:06;;;;;;;20.90;10.60;;;-2.30;54.60;;;;;;5070345;28;20414;-57
2022/03/06 02:39:32;;;;;;;27.50;11.83;;;-2.30;54.70;;;;;;5067487;28;20479;-57
2022/03/06 02:41:58;;;;;;;25.43;11.83;;;-2.30;54.80;;;;;;5069072;28;20956;-57
2022/03/06 02:44:25;;;;;;;30.17;12.97;;;-2.30;54.90;;;;;;5074030;28;20175;-58
2022/03/06 02:46:51;;;;;;;27.70;12.90;;;-2.30;55.00;;;;;;5074137;28;20425;-58
2022/03/06 02:49:20;;;;;;;27.07;11.60;;;-2.30;55.10;;;;;;5066860;28;20458;-57
2022/03/06 02:51:46;;;;;;;23.13;10.17;;;-2.30;55.10;;;;;;5071227;28;20506;-58
2022/03/06 02:54:20;;;;;;;23.63;11.70;;;-2.30;55.10;;;;;;5071689;28;20548;-59
2022/03/06 02:56:49;;;;;;;26.13;11.73;;;-2.30;55.20;;;;;;5071209;28;20441;-59
2022/03/06 02:59:16;;;;;;;31.73;12.37;;;-2.30;55.40;;;;;;5063756;28;20449;-58
2022/03/06 03:01:41;;;;;;;24.70;11.77;;;-2.30;55.60;;;;;;5069511;28;20467;-56
2022/03/06 03:04:11;;;;;;;31.53;13.57;;;-2.30;55.60;;;;;;5082648;28;20420;-57
2022/03/06 03:06:38;;;;;;;30.43;13.00;;;-2.30;55.60;;;;;;5071518;28;20422;-58
2022/03/06 03:09:05;;;;;;;24.70;11.73;;;-2.30;55.50;;;;;;5080916;28;20522;-56
2022/03/06 03:11:32;;;;;;;26.23;11.50;;;-2.30;55.50;;;;;;5068281;28;20435;-58
2022/03/06 03:13:59;;;;;;;24.30;10.23;;;-2.30;55.50;;;;;;5070581;28;20393;-57
2022/03/06 03:16:25;;;;;;;23.40;10.70;;;-2.30;55.50;;;;;;5070222;28;20440;-58
2022/03/06 03:18:51;;;;;;;23.40;11.47;;;-2.30;55.50;;;;;;5074189;28;20453;-58
2022/03/06 03:21:16;;;;;;;28.23;12.23;;;-2.40;55.40;;;;;;5074351;28;20429;-57
2022/03/06 03:23:42;;;;;;;30.97;13.37;;;-2.40;55.40;;;;;;5071637;28;20203;-57
2022/03/06 03:26:07;;;;;;;23.67;11.17;;;-2.40;55.50;;;;;;5074969;28;20179;-59
2022/03/06 03:28:33;;;;;;;24.37;11.83;;;-2.50;55.40;;;;;;5080236;28;20719;-57
2022/03/06 03:30:59;;;;;;;28.73;12.03;;;-2.50;55.60;;;;;;5068257;28;20790;-57
2022/03/06 03:33:24;;;;;;;26.67;11.43;;;-2.50;55.70;;;;;;5071127;28;20239;-58
2022/03/06 03:35:50;;;;;;;26.93;12.30;;;-2.60;55.90;;;;;;5064293;28;20219;-59
2022/03/06 03:38:16;;;;;;;25.00;11.40;;;-2.60;56.20;;;;;;5073087;28;20201;-58
2022/03/06 03:40:41;;;;;;;27.63;12.53;;;-2.60;56.30;;;;;;5065234;28;20191;-57
2022/03/06 03:43:07;;;;;;;23.00;11.33;;;-2.60;56.50;;;;;;5064659;28;20195;-58
2022/03/06 03:45:33;;;;;;;27.47;11.60;;;-2.60;56.60;;;;;;5084509;28;20202;-64
2022/03/06 03:47:58;;;;;;;28.53;12.47;;;-2.60;56.70;;;;;;5105252;28;20202;-59
2022/03/06 03:50:24;;;;;;;28.20;12.23;;;-2.60;56.80;;;;;;5078782;28;20245;-63
2022/03/06 03:52:50;;;;;;;25.87;10.63;;;-2.60;56.90;;;;;;5084131;28;20694;-59
2022/03/06 03:55:16;;;;;;;22.33;11.50;;;-2.60;57.10;;;;;;5091693;28;20190;-58
2022/03/06 03:57:41;;;;;;;25.40;11.00;;;-2.60;57.10;;;;;;5091215;28;20627;-58
2022/03/06 04:00:08;;;;;;;29.70;12.50;;;-2.60;57.20;;;;;;5064258;28;20438;-58
2022/03/06 04:02:34;;;;;;;28.67;12.07;;;-2.60;57.10;;;;;;5067873;28;20203;-56
2022/03/06 04:05:00;;;;;;;23.53;12.27;;;-2.60;57.10;;;;;;5067290;28;21092;-56
2022/03/06 04:07:25;;;;;;;29.03;13.00;;;-2.60;57.30;;;;;;5070303;28;20562;-57
2022/03/06 04:09:51;;;;;;;28.50;13.00;;;-2.70;57.30;;;;;;5102381;28;20455;-59
2022/03/06 04:12:17;;;;;;;29.53;12.17;;;-2.70;57.50;;;;;;5094982;28;20531;-59
2022/03/06 04:14:42;;;;;;;25.27;11.63;;;-2.70;57.70;;;;;;5093816;28;20192;-60
2022/03/06 04:17:08;;;;;;;31.83;13.23;;;-2.70;57.90;;;;;;5079401;28;20660;-59
2022/03/06 04:19:34;;;;;;;24.03;12.07;;;-2.70;58.10;;;;;;5115954;22;20623;-60
2022/03/06 04:22:00;;;;;;;31.00;12.37;;;-2.80;58.30;;;;;;5105980;28;20172;-58
2022/03/06 04:24:26;;;;;;;27.30;12.33;;;-2.80;58.40;;;;;;5111716;28;20730;-60
2022/03/06 04:26:52;;;;;;;25.73;11.80;;;-2.80;58.80;;;;;;5110600;27;20267;-60
2022/03/06 04:29:18;;;;;;;28.10;12.20;;;-2.80;59.00;;;;;;5087209;28;20531;-59
2022/03/06 04:31:43;;;;;;;28.00;13.00;;;-2.80;59.20;;;;;;5094397;28;20425;-59
2022/03/06 04:34:09;;;;;;;27.40;12.50;;;-2.80;59.40;;;;;;5089323;28;20657;-60
2022/03/06 04:36:35;;;;;;;34.73;14.60;;;-2.90;59.40;;;;;;5079153;28;20182;-60
2022/03/06 04:39:02;;;;;;;26.90;11.20;;;-2.90;59.40;;;;;;5090421;28;20457;-60
2022/03/06 04:41:28;;;;;;;22.20;11.83;;;-2.90;59.20;;;;;;5092667;28;20785;-60
2022/03/06 04:43:53;;;;;;;28.27;12.77;;;-2.90;59.10;;;;;;5091495;28;20434;-60
2022/03/06 04:46:19;;;;;;;31.07;13.30;;;-3.00;59.20;;;;;;5084024;28;20193;-60
2022/03/06 04:48:45;;;;;;;27.90;12.90;;;-3.00;59.50;;;;;;5092206;28;20209;-57
2022/03/06 04:51:11;;;;;;;29.87;13.83;;;-3.00;59.80;;;;;;5089228;28;20854;-58
2022/03/06 04:53:36;;;;;;;29.23;12.97;;;-3.10;60.20;;;;;;5091528;28;20282;-58
2022/03/06 04:56:04;;;;;;;27.57;13.40;;;-3.10;60.50;;;;;;5075457;28;20206;-58
2022/03/06 04:58:30;;;;;;;29.30;12.93;;;-3.10;60.80;;;;;;5104995;28;20398;-59
2022/03/06 05:00:55;;;;;;;26.80;11.83;;;-3.10;61.30;;;;;;5086134;28;20439;-58
2022/03/06 05:03:22;;;;;;;30.07;12.63;;;-3.10;61.80;;;;;;5086223;28;20404;-59
2022/03/06 05:05:48;;;;;;;29.17;13.13;;;-3.10;62.60;;;;;;5092725;28;20227;-59
2022/03/06 05:08:14;;;;;;;30.27;13.03;;;-3.10;63.10;;;;;;5102295;28;20432;-59
2022/03/06 05:10:39;;;;;;;27.07;13.30;;;-3.10;63.50;;;;;;5091234;28;20491;-59
2022/03/06 05:13:05;;;;;;;28.50;13.10;;;-3.10;63.70;;;;;;5078467;28;20203;-59
2022/03/06 05:15:31;;;;;;;29.87;12.47;;;-3.10;64.00;;;;;;5082806;28;20735;-59
2022/03/06 05:17:57;;;;;;;33.87;14.63;;;-3.10;64.50;;;;;;5085083;28;20453;-59
2022/03/06 05:20:23;;;;;;;31.53;14.60;;;-3.10;65.40;;;;;;5097553;28;20837;-58
2022/03/06 05:22:49;;;;;;;29.90;14.00;;;-3.10;65.70;;;;;;5103525;28;20985;-59
2022/03/06 05:25:15;;;;;;;31.03;14.17;;;-3.10;65.50;;;;;;5089150;28;20179;-59
2022/03/06 05:27:40;;;;;;;32.30;13.90;;;-3.10;66.00;;;;;;5079595;28;20445;-59
2022/03/06 05:30:09;;;;;;;29.30;13.50;;;-3.10;66.20;;;;;;5075813;28;20652;-60
2022/03/06 05:32:34;;;;;;;28.67;13.73;;;-3.10;66.60;;;;;;5077749;28;20650;-59
2022/03/06 05:35:00;;;;;;;30.03;14.23;;;-3.10;66.80;;;;;;5089460;28;20449;-58
2022/03/06 05:37:26;;;;;;;27.20;12.73;;;-3.10;66.70;;;;;;5083500;28;20203;-59
2022/03/06 05:39:51;;;;;;;35.53;13.53;;;-3.10;66.60;;;;;;5087697;28;20199;-58
2022/03/06 05:42:17;;;;;;;26.87;12.90;;;-3.20;66.70;;;;;;5086456;28;20182;-58
2022/03/06 05:44:43;;;;;;;28.50;13.33;;;-3.20;67.50;;;;;;5083681;28;20290;-58
2022/03/06 05:47:08;;;;;;;35.70;14.90;;;-3.20;67.90;;;;;;5085421;28;20227;-59
2022/03/06 05:49:34;;;;;;;35.83;15.20;;;-3.20;68.30;;;;;;5084616;28;20959;-58
2022/03/06 05:52:02;;;;;;;32.83;14.60;;;-3.30;69.00;;;;;;5085390;28;20198;-59
2022/03/06 05:54:28;;;;;;;36.70;14.67;;;-3.30;69.80;;;;;;5096456;28;20674;-58
2022/03/06 05:56:54;;;;;;;34.07;14.63;;;-3.30;69.70;;;;;;5093819;28;20423;-58
2022/03/06 05:59:20;;;;;;;33.83;13.80;;;-3.30;70.50;;;;;;5088391;28;20532;-58
2022/03/06 06:01:46;;;;;;;34.10;14.43;;;-3.20;70.70;;;;;;5093237;28;20174;-59
2022/03/06 06:04:12;;;;;;;32.83;14.63;;;-3.30;71.90;;;;;;5099417;28;20176;-60
2022/03/06 06:06:38;;;;;;;33.90;14.87;;;-3.20;74.30;;;;;;5090553;28;20577;-59
2022/03/06 06:09:04;;;;;;;32.33;14.00;;;-3.20;75.70;;;;;;5087777;28;21225;-59
2022/03/06 06:11:30;;;;;;;29.97;14.13;;;-3.20;76.60;;;;;;5089463;28;20771;-59
2022/03/06 06:13:56;;;;;;;34.60;16.10;;;-3.20;78.80;;;;;;5092713;28;20452;-59
2022/03/06 06:16:21;;;;;;;31.97;14.60;;;-3.10;80.20;;;;;;5076563;28;20225;-59
2022/03/06 06:18:47;;;;;;;31.20;15.53;;;-3.00;80.70;;;;;;5092001;28;20211;-58
2022/03/06 06:21:15;;;;;;;28.23;13.90;;;-3.00;81.60;;;;;;5098051;28;20529;-59
2022/03/06 06:23:41;;;;;;;39.00;15.73;;;-3.00;82.70;;;;;;5094634;28;20185;-60
2022/03/06 06:26:06;;;;;;;30.80;14.73;;;-2.90;84.30;;;;;;5086119;28;20440;-60
2022/03/06 06:28:32;;;;;;;35.07;16.40;;;-2.90;84.90;;;;;;5085555;28;20572;-59
2022/03/06 06:30:58;;;;;;;32.90;16.07;;;-2.80;84.60;;;;;;5079052;28;20262;-58
2022/03/06 06:33:24;;;;;;;34.03;15.97;;;-2.80;85.90;;;;;;5083883;28;20182;-59
2022/03/06 06:35:49;;;;;;;34.67;15.60;;;-2.70;87.30;;;;;;5095425;28;20654;-58
2022/03/06 06:38:15;;;;;;;34.43;16.00;;;-2.70;87.70;;;;;;5105272;28;20686;-59
2022/03/06 06:40:41;;;;;;;43.73;17.90;;;-2.60;88.90;;;;;;5079991;28;20196;-57
2022/03/06 06:43:07;;;;;;;38.60;15.37;;;-2.60;88.30;;;;;;5086442;28;20439;-59
2022/03/06 06:45:32;;;;;;;36.33;16.80;;;-2.50;89.40;;;;;;5090872;28;20187;-59
2022/03/06 06:47:58;;;;;;;35.80;16.73;;;-2.40;90.00;;;;;;5099053;28;20172;-59
2022/03/06 06:50:24;;;;;;;39.57;17.50;;;-2.40;90.00;;;;;;5079312;28;20590;-59
2022/03/06 06:52:49;;;;;;;38.63;17.20;;;-2.40;90.80;;;;;;5090087;28;20178;-58
2022/03/06 06:55:15;;;;;;;39.07;17.37;;;-2.30;91.90;;;;;;5094834;28;20209;-60
2022/03/06 06:57:41;;;;;;;43.00;16.83;;;-2.30;91.90;;;;;;5089245;28;20659;-58
2022/03/06 07:00:07;;;;;;;41.90;19.00;;;-2.20;92.30;;;;;;5084638;28;20304;-58
2022/03/06 07:02:33;;;;;;;38.33;17.77;;;-2.10;92.20;;;;;;5091027;28;20197;-59
2022/03/06 07:04:59;;;;;;;40.10;17.20;;;-2.10;92.70;;;;;;5089854;28;21103;-57
2022/03/06 07:07:25;;;;;;;40.93;19.00;;;-2.00;92.70;;;;;;5088651;28;20417;-60
2022/03/06 07:09:51;;;;;;;39.10;17.87;;;-2.00;93.40;;;;;;5079945;28;20217;-59
2022/03/06 07:12:16;;;;;;;46.47;18.87;;;-1.90;93.60;;;;;;5085813;28;20222;-59
2022/03/06 07:14:42;;;;;;;42.10;18.83;;;-1.90;93.50;;;;;;5087863;28;20194;-58
2022/03/06 07:17:07;;;;;;;42.97;18.13;;;-1.80;93.10;;;;;;5076143;28;20608;-58
2022/03/06 07:19:33;;;;;;;37.90;16.47;;;-1.70;93.40;;;;;;5090536;28;20235;-59
2022/03/06 07:21:59;;;;;;;39.93;18.03;;;-1.70;93.10;;;;;;5090224;28;20189;-58
2022/03/06 07:24:28;;;;;;;42.93;17.90;;;-1.60;92.70;;;;;;5090877;28;20604;-58
2022/03/06 07:26:53;;;;;;;40.83;18.50;;;-1.60;92.00;;;;;;5089638;28;20183;-59
2022/03/06 07:29:19;;;;;;;38.73;17.10;;;-1.50;91.20;;;;;;5093196;28;20792;-58
2022/03/06 07:31:45;;;;;;;35.80;16.77;;;-1.50;91.40;;;;;;5089674;28;20182;-58
2022/03/06 07:34:10;;;;;;;38.63;16.70;;;-1.40;91.00;;;;;;5074671;28;20194;-58
2022/03/06 07:36:36;;;;;;;36.27;17.20;;;-1.40;91.60;;;;;;5088624;28;20203;-59
2022/03/06 07:39:02;;;;;;;34.30;16.90;;;-1.30;90.90;;;;;;5093829;28;20686;-58
2022/03/06 07:41:28;;;;;;;38.80;17.43;;;-1.20;90.00;;;;;;5085612;28;20521;-60
2022/03/06 07:43:54;;;;;;;35.23;17.93;;;-1.10;89.30;;;;;;5087541;28;20448;-57
2022/03/06 07:46:19;;;;;;;32.30;16.70;;;-1.10;87.20;;;;;;5094027;28;20807;-59
2022/03/06 07:48:45;;;;;;;37.07;16.67;;;-1.00;87.10;;;;;;5092996;28;20195;-58
2022/03/06 07:51:11;;;;;;;36.13;16.50;;;-0.90;86.50;;;;;;5091778;28;20229;-58
2022/03/06 07:53:36;;;;;;;47.80;18.60;;;-0.90;84.10;;;;;;5089613;28;20417;-59
2022/03/06 07:56:02;;;;;;;39.97;17.30;;;-0.80;83.20;;;;;;5082137;28;20557;-58
2022/03/06 07:58:28;;;;;;;34.87;16.50;;;-0.80;82.00;;;;;;5097070;28;20182;-58
2022/03/06 08:00:53;;;;;;;33.37;16.47;;;-0.80;80.50;;;;;;5101020;28;20171;-58
2022/03/06 08:03:19;;;;;;;43.50;19.07;;;-0.70;79.50;;;;;;5102073;28;20186;-59
2022/03/06 08:05:45;;;;;;;37.10;16.77;;;-0.70;78.50;;;;;;5095552;28;20180;-59
2022/03/06 08:08:10;;;;;;;38.37;17.57;;;-0.70;78.40;;;;;;5099620;28;20192;-58
2022/03/06 08:10:36;;;;;;;37.40;16.30;;;-0.70;78.10;;;;;;5108060;28;20649;-59
2022/03/06 08:13:02;;;;;;;36.77;16.73;;;-0.60;77.30;;;;;;5089891;28;20188;-58
2022/03/06 08:15:28;;;;;;;37.70;16.30;;;-0.60;76.50;;;;;;5097312;28;20202;-59
2022/03/06 08:17:53;;;;;;;31.27;15.67;;;-0.50;75.20;;;;;;5093861;28;20254;-59
2022/03/06 08:20:19;;;;;;;31.90;15.87;;;-0.40;75.70;;;;;;5090743;28;20465;-59
2022/03/06 08:22:45;;;;;;;33.83;16.07;;;-0.40;74.30;;;;;;5093142;28;20274;-59
2022/03/06 08:25:11;;;;;;;32.30;15.77;;;-0.40;72.40;;;;;;5095254;28;20445;-59
2022/03/06 08:27:37;;;;;;;30.43;15.30;;;-0.40;71.50;;;;;;5081914;28;20179;-59
2022/03/06 08:30:04;;;;;;;34.40;16.23;;;-0.30;71.40;;;;;;5096476;28;20449;-59
2022/03/06 08:32:30;;;;;;;29.97;14.73;;;-0.30;71.40;;;;;;5089884;28;20189;-59
2022/03/06 08:34:56;;;;;;;35.17;16.03;;;-0.30;71.00;;;;;;5089967;28;20452;-58
2022/03/06 08:37:22;;;;;;;31.87;16.60;;;-0.20;70.60;;;;;;5080591;28;20177;-58
2022/03/06 08:39:49;;;;;;;30.03;15.70;;;-0.10;69.40;;;;;;5084552;28;20458;-61
2022/03/06 08:42:15;;;;;;;32.00;15.93;;;-0.10;80.00;;;;;;5086850;28;20179;-62
2022/03/06 08:44:41;;;;;;;29.53;14.53;;;0.10;78.40;;;;;;5085206;28;20481;-61
2022/03/06 08:47:07;;;;;;;30.93;15.43;;;0.30;69.90;;;;;;5090133;28;20938;-60
2022/03/06 08:49:33;;;;;;;34.67;16.30;;;0.40;65.20;;;;;;5089388;28;20198;-60
2022/03/06 08:51:58;;;;;;;31.70;14.30;;;0.40;64.30;;;;;;5087188;28;21065;-60
2022/03/06 08:54:24;;;;;;;31.80;14.60;;;0.40;63.80;;;;;;5097933;28;20462;-60
2022/03/06 08:56:50;;;;;;;29.00;14.63;;;0.40;63.30;;;;;;5080021;28;20636;-60
2022/03/06 08:59:19;;;;;;;33.30;15.20;;;0.50;62.80;;;;;;5103099;28;20449;-59
2022/03/06 09:01:46;;;;;;;34.93;16.07;;;0.40;61.80;;;;;;5091502;28;20177;-59
2022/03/06 09:04:12;;;;;;;30.77;15.03;;;0.40;61.70;;;;;;5086973;28;20434;-59
2022/03/06 09:06:39;;;;;;;27.47;14.10;;;0.40;61.50;;;;;;5087309;28;20543;-60
2022/03/06 09:09:04;;;;;;;30.97;15.80;;;0.50;61.40;;;;;;5089419;28;20564;-59
2022/03/06 09:11:30;;;;;;;28.43;14.73;;;0.50;62.00;;;;;;5092552;28;20928;-60
2022/03/06 09:13:56;;;;;;;37.30;16.00;;;0.60;61.70;;;;;;5084915;28;20280;-60
2022/03/06 09:16:22;;;;;;;32.70;15.27;;;0.60;61.00;;;;;;5080256;28;20208;-61
2022/03/06 09:18:47;;;;;;;34.33;15.37;;;0.70;61.30;;;;;;5082570;28;20297;-60
2022/03/06 09:21:14;;;;;;;25.63;14.03;;;0.70;61.70;;;;;;5088070;28;20187;-61
2022/03/06 09:23:40;;;;;;;29.73;15.47;;;0.70;60.80;;;;;;5095018;28;20361;-61
2022/03/06 09:26:05;;;;;;;35.47;15.70;;;0.80;60.90;;;;;;5082135;28;20475;-59
2022/03/06 09:28:31;;;;;;;30.60;14.73;;;0.90;60.10;;;;;;5088407;28;20924;-61
2022/03/06 09:30:57;;;;;;;30.20;15.00;;;0.90;59.30;;;;;;5084977;28;20198;-61
2022/03/06 09:33:22;;;;;;;29.53;15.00;;;0.90;59.50;;;;;;5085087;28;20175;-61
2022/03/06 09:35:48;;;;;;;32.90;15.83;;;1.00;59.50;;;;;;5083080;28;20208;-61
2022/03/06 09:38:13;;;;;;;35.43;15.80;;;1.10;59.50;;;;;;5090219;28;20166;-62
2022/03/06 09:40:43;;;;;;;30.73;16.00;;;1.30;59.50;;;;;;5087492;28;20237;-61
2022/03/06 09:43:18;;;;;;;29.33;15.50;;;1.40;59.10;;;;;;5093849;28;20255;-61
2022/03/06 09:45:45;;;;;;;32.40;16.13;;;1.60;59.10;;;;;;5089068;28;20426;-61
2022/03/06 09:48:14;;;;;;;27.90;14.47;;;1.80;58.90;;;;;;5091973;28;20437;-62
2022/03/06 09:50:42;;;;;;;34.10;16.17;;;1.90;57.40;;;;;;5096662;28;20460;-61
2022/03/06 09:53:08;;;;;;;27.20;14.43;;;2.00;56.80;;;;;;5105968;28;20418;-61
2022/03/06 09:55:34;;;;;;;33.53;16.13;;;2.10;56.30;;;;;;5087472;28;21035;-62
2022/03/06 09:58:00;;;;;;;31.37;15.13;;;2.10;55.90;;;;;;5079783;28;21125;-60
2022/03/06 10:00:26;;;;;;;27.43;14.20;;;2.20;55.90;;;;;;5091341;28;20442;-61
2022/03/06 10:02:55;;;;;;;28.97;15.00;;;2.30;55.90;;;;;;5079111;28;20637;-60
2022/03/06 10:05:26;;;;;;;30.60;15.63;;;2.40;55.60;;;;;;5088094;28;20196;-61
2022/03/06 10:07:52;;;;;;;30.93;14.73;;;2.60;55.60;;;;;;5094367;28;20446;-60
2022/03/06 10:10:35;;;;;;;30.50;15.50;;;2.70;54.40;;;;;;5093190;28;20456;-60
2022/03/06 10:13:07;;;;;;;31.23;15.77;;;2.80;53.90;;;;;;5105100;28;20183;-59
2022/03/06 10:15:34;;;;;;;25.90;14.47;;;2.90;53.40;;;;;;5093682;28;20491;-60
2022/03/06 10:18:01;;;;;;;29.83;15.00;;;3.00;53.20;;;;;;5077574;28;21055;-60
2022/03/06 10:20:28;;;;;;;27.80;15.00;;;3.20;53.10;;;;;;5080743;28;20848;-60
2022/03/06 10:22:54;;;;;;;28.33;14.53;;;3.30;53.00;;;;;;5073746;28;20432;-61
2022/03/06 10:25:21;;;;;;;23.07;13.77;;;3.40;52.30;;;;;;5086866;28;20431;-61
2022/03/06 10:27:54;;;;;;;28.90;14.43;;;3.50;51.50;;;;;;5080805;28;20181;-60
2022/03/06 10:30:37;;;;;;;24.30;14.33;;;3.60;51.30;;;;;;5088091;28;20458;-60
2022/03/06 10:33:18;;;;;;;27.30;13.53;;;3.70;51.20;;;;;;5082890;28;20958;-61
2022/03/06 10:35:46;;;;;;;25.23;13.23;;;3.80;50.80;;;;;;5086316;28;20500;-61
2022/03/06 10:38:30;;;;;;;25.83;13.43;;;3.90;50.70;;;;;;5081616;28;20464;-61
2022/03/06 10:40:59;;;;;;;25.63;13.57;;;4.10;50.80;;;;;;5075925;28;20420;-61
2022/03/06 10:43:30;;;;;;;28.70;13.33;;;4.20;50.10;;;;;;5084241;28;20507;-61
2022/03/06 10:46:06;;;;;;;26.00;12.97;;;4.30;49.80;;;;;;5077642;28;20436;-61
2022/03/06 10:48:34;;;;;;;25.63;13.50;;;4.40;49.50;;;;;;5074395;28;20459;-61
2022/03/06 10:51:01;;;;;;;24.10;14.20;;;4.50;49.30;;;;;;5076376;28;20463;-58
2022/03/06 10:53:28;;;;;;;27.63;14.50;;;4.60;49.00;;;;;;5079715;28;21001;-59
2022/03/06 10:55:54;;;;;;;23.30;13.13;;;4.80;48.30;;;;;;5079125;28;21015;-61
2022/03/06 10:58:21;;;;;;;23.97;12.83;;;4.90;47.80;;;;;;5079726;28;20501;-61
2022/03/06 11:00:48;;;;;;;25.30;13.77;;;5.10;47.80;;;;;;5077409;28;20431;-61
2022/03/06 11:03:14;;;;;;;23.23;12.90;;;5.20;47.70;;;;;;5076202;28;20440;-61
2022/03/06 11:05:42;;;;;;;22.40;11.20;;;5.40;46.90;;;;;;5081705;28;20440;-61
2022/03/06 11:08:11;;;;;;;24.60;13.37;;;5.50;46.90;;;;;;5077714;28;20444;-61
2022/03/06 11:10:39;;;;;;;21.40;10.83;;;5.60;46.30;;;;;;5076109;28;20461;-61
2022/03/06 11:13:05;;;;;;;20.27;11.77;;;5.70;44.80;;;;;;5072046;28;20926;-61
2022/03/06 11:15:31;;;;;;;26.53;13.67;;;5.80;44.50;;;;;;5093408;28;20694;-61
2022/03/06 11:18:00;;;;;;;26.80;13.40;;;5.90;44.80;;;;;;5075813;28;21159;-61
2022/03/06 11:20:28;;;;;;;22.83;13.10;;;6.10;44.90;;;;;;5078832;28;20224;-61
2022/03/06 11:23:12;;;;;;;25.63;13.93;;;6.30;44.20;;;;;;5081715;28;20446;-60
2022/03/06 11:25:50;;;;;;;27.77;12.80;;;6.50;43.40;;;;;;5076183;28;20446;-61
2022/03/06 11:28:16;;;;;;;24.10;12.97;;;6.70;43.40;;;;;;5078287;28;20444;-61
2022/03/06 11:30:42;;;;;;;23.23;12.77;;;6.90;41.30;;;;;;5075950;28;21005;-61
2022/03/06 11:33:10;;;;;;;21.53;11.60;;;6.90;40.30;;;;;;5081138;28;20196;-60
2022/03/06 11:35:41;;;;;;;26.60;12.43;;;7.00;39.90;;;;;;5075069;28;20464;-60
2022/03/06 11:38:08;;;;;;;25.20;12.40;;;6.70;39.60;;;;;;5073816;28;20795;-61
2022/03/06 11:40:48;;;;;;;25.63;13.13;;;6.60;40.50;;;;;;5079031;28;21037;-59
2022/03/06 11:43:35;;;;;;;23.40;12.00;;;6.90;42.20;;;;;;5077993;28;21172;-60
2022/03/06 11:46:06;;;;;;;37.33;13.20;;;7.60;42.40;;;;;;5076390;28;20435;-58
2022/03/06 11:48:34;;;;;;;23.37;12.97;;;8.30;41.40;;;;;;5074441;28;20521;-60
2022/03/06 11:51:19;;;;;;;25.33;13.03;;;9.00;40.40;;;;;;5079398;28;20422;-58
2022/03/06 11:54:09;;;;;;;23.93;14.13;;;9.00;38.30;;;;;;5076127;28;20440;-59
2022/03/06 11:56:35;;;;;;;21.23;12.10;;;8.80;38.40;;;;;;5071286;28;20605;-60
2022/03/06 11:59:04;;;;;;;22.23;12.00;;;8.60;37.20;;;;;;5072758;28;20456;-61
2022/03/06 12:01:36;;;;;;;27.00;14.23;;;8.10;36.80;;;;;;5076910;28;20825;-61
2022/03/06 12:04:12;;;;;;;23.77;13.33;;;8.20;37.80;;;;;;5077685;28;20431;-61
2022/03/06 12:06:39;;;;;;;21.37;13.30;;;8.60;37.90;;;;;;5076975;28;20926;-59
2022/03/06 12:09:19;;;;;;;26.33;14.97;;;8.40;37.10;;;;;;5084582;28;20574;-61
2022/03/06 12:11:47;;;;;;;23.63;13.27;;;7.90;37.50;;;;;;5076058;28;20869;-61
2022/03/06 12:14:14;;;;;;;22.73;13.53;;;7.40;37.70;;;;;;5074397;28;20428;-61
2022/03/06 12:17:02;;;;;;;22.63;13.53;;;7.00;38.30;;;;;;5076446;28;20439;-58
2022/03/06 12:19:31;;;;;;;22.63;12.47;;;6.60;38.70;;;;;;5078621;28;20475;-58
2022/03/06 12:22:13;;;;;;;26.30;14.17;;;6.40;39.40;;;;;;5071320;28;20446;-60
2022/03/06 12:24:41;;;;;;;25.50;14.27;;;7.00;40.20;;;;;;5075336;28;21101;-58
2022/03/06 12:27:11;;;;;;;21.57;12.10;;;7.60;39.80;;;;;;5073151;28;20428;-60
2022/03/06 12:29:50;;;;;;;23.03;13.03;;;8.40;39.60;;;;;;5070332;28;20510;-58